createdAt,value
2023-04-26T00:01:42.684Z,2.47
2023-04-26T00:11:44.760Z,1.13
2023-04-26T00:21:46.855Z,1.53
2023-04-26T00:31:49.108Z,1.70
2023-04-26T00:41:51.331Z,2.17
2023-04-26T00:51:53.843Z,2.23
2023-04-26T01:01:56.139Z,2.10
2023-04-26T01:12:00.401Z,2.03
2023-04-26T01:22:04.151Z,3.13
2023-04-26T01:32:06.318Z,2.27
2023-04-26T01:42:08.436Z,2.53
2023-04-26T01:52:10.569Z,2.10
2023-04-26T02:02:12.656Z,2.53
2023-04-26T02:12:14.842Z,3.50
2023-04-26T02:22:17.480Z,2.40
2023-04-26T02:32:19.650Z,2.83
2023-04-26T02:42:21.807Z,3.60
2023-04-26T02:52:24.073Z,3.70
2023-04-26T03:02:26.452Z,4.20
2023-04-26T03:12:28.929Z,4.03
2023-04-26T03:22:31.216Z,3.17
2023-04-26T03:32:33.565Z,3.90
2023-04-26T03:42:36.847Z,4.63
2023-04-26T03:52:39.065Z,4.67
2023-04-26T04:02:42.086Z,4.57
2023-04-26T04:12:48.361Z,5.10
2023-04-26T04:22:51.116Z,4.93
2023-04-26T04:32:53.644Z,5.80
2023-04-26T04:42:56.238Z,5.87
2023-04-26T04:53:00.914Z,7.03
2023-04-26T05:03:04.656Z,7.47
2023-04-26T05:13:07.223Z,8.03
2023-04-26T05:23:09.841Z,8.70
2023-04-26T05:33:12.028Z,8.60
2023-04-26T05:43:37.738Z,9.30
2023-04-26T05:53:42.094Z,8.33
2023-04-26T06:03:45.412Z,8.13
2023-04-26T06:13:49.709Z,7.87
2023-04-26T06:23:52.745Z,7.13
2023-04-26T06:33:57.917Z,6.93
2023-04-26T10:19:21.329Z,1.10
2023-04-26T10:29:25.770Z,1.93
2023-04-26T10:39:28.245Z,2.40
2023-04-26T10:49:45.920Z,2.57
2023-04-26T11:00:08.355Z,2.07
2023-04-26T11:10:10.646Z,2.63
2023-04-26T11:20:21.600Z,3.20
2023-04-26T11:30:23.745Z,2.50
2023-04-26T11:40:29.011Z,2.70
2023-04-26T11:50:38.597Z,2.65
2023-04-26T12:01:07.702Z,2.10
2023-04-26T12:11:09.761Z,1.93
2023-04-26T12:21:13.475Z,1.90
2023-04-26T12:31:15.848Z,1.70
2023-04-26T12:41:30.664Z,1.83
2023-04-26T12:51:47.496Z,1.33
2023-04-26T13:01:49.651Z,1.17
2023-04-26T13:11:52.251Z,1.17
2023-04-26T13:21:55.687Z,1.50
2023-04-26T13:31:59.250Z,0.90
2023-04-26T13:42:02.003Z,1.50
2023-04-26T13:52:04.093Z,1.20
2023-04-26T14:02:06.733Z,1.53
2023-04-26T14:12:09.849Z,1.53
2023-04-26T14:22:12.985Z,1.48
2023-04-26T14:32:15.296Z,1.20
2023-04-26T14:42:17.539Z,1.43
2023-04-26T14:52:19.590Z,1.53
2023-04-26T15:02:22.955Z,1.57
2023-04-26T15:12:25.331Z,1.43
2023-04-26T15:22:27.564Z,1.40
2023-04-26T15:32:30.167Z,1.52
2023-04-26T15:42:32.400Z,1.65
2023-04-26T15:52:38.560Z,1.37
2023-04-26T16:02:44.467Z,1.20
2023-04-26T16:12:46.907Z,1.63
2023-04-26T16:22:49.907Z,1.53
2023-04-26T16:32:52.119Z,1.70
2023-04-26T16:42:54.180Z,1.57
2023-04-26T16:52:56.232Z,1.80
2023-04-26T17:02:58.387Z,1.27
2023-04-26T17:13:01.692Z,1.60
2023-04-26T17:23:04.488Z,1.53
2023-04-26T17:33:07.500Z,1.73
2023-04-26T17:43:09.769Z,1.40
2023-04-26T17:53:12.017Z,1.58
2023-04-26T18:03:14.341Z,1.77
2023-04-26T18:13:16.646Z,1.93
2023-04-26T18:23:19.325Z,1.90
2023-04-26T18:33:22.129Z,2.10
2023-04-26T18:43:24.353Z,2.83
2023-04-26T18:53:26.468Z,2.00
2023-04-26T19:03:28.858Z,2.88
2023-04-26T19:13:31.133Z,2.78
2023-04-26T19:23:33.767Z,3.23
2023-04-26T19:33:36.870Z,3.10
2023-04-26T19:43:38.972Z,2.53
2023-04-26T19:53:41.392Z,2.47
2023-04-26T20:03:43.612Z,2.47
2023-04-26T20:13:46.388Z,2.43
2023-04-26T20:23:48.582Z,2.75
2023-04-26T20:33:50.730Z,2.70
2023-04-26T20:43:53.133Z,2.60
2023-04-26T20:53:55.322Z,3.70
2023-04-26T21:03:57.539Z,3.10
2023-04-26T21:13:59.685Z,3.17
2023-04-26T21:24:02.477Z,3.30
2023-04-26T21:34:04.522Z,3.00
2023-04-26T21:44:06.607Z,3.40
2023-04-26T21:54:09.298Z,3.70
2023-04-26T22:04:11.596Z,2.97
2023-04-26T22:14:14.055Z,3.20
2023-04-26T22:24:16.101Z,3.50
2023-04-26T22:34:20.024Z,3.23
2023-04-26T22:44:22.806Z,4.27
2023-04-26T22:54:24.871Z,3.50
2023-04-26T23:04:27.181Z,4.03
2023-04-26T23:14:30.371Z,3.53
2023-04-26T23:24:32.433Z,4.80
2023-04-26T23:34:34.485Z,3.60
2023-04-26T23:44:36.530Z,4.30
2023-04-26T23:54:38.613Z,3.90
